Orbital elements of COSMOS 2251 DEB
| Launched | 15 June 1993 |
| Flight ended | – |
| Launch site | Plesetsk Missile and Space Complex, Russia |
| Owner | Commonwealth of Independent States (former USSR) |
| NORAD ID | 34387 |
| Date fetched |
Epoch osculation |
Inc. [°] |
Ecc. | RA asc node [hr] |
Arg Peri. [°] |
Mean anom [°] |
Mean motion [rev/day] |
Abs. mag |
| Date fetched |
Epoch osculation |
Inc. [°] |
Ecc. | RA asc node [hr] |
Arg Peri. [°] |
Mean anom [°] |
Mean motion [rev/day] |
Abs. mag |
| 2026 May 03 17:57 | 2026 Apr 30 15:10:03 | 74.0397 | 0.00378 | 20.9104 | 17.2375 | 56.2449 | 14.44183 | – |
| 2026 May 02 17:57 | 2026 Apr 30 15:10:03 | 74.0397 | 0.00378 | 20.9104 | 17.2375 | 56.2449 | 14.44183 | – |
| 2026 May 01 17:56 | 2026 Apr 30 15:10:03 | 74.0397 | 0.00378 | 20.9104 | 17.2375 | 56.2449 | 14.44183 | – |
| 2026 Apr 30 17:56 | 2026 Apr 30 15:10:03 | 74.0397 | 0.00378 | 20.9104 | 17.2375 | 56.2449 | 14.44183 | – |
| 2026 Apr 29 17:57 | 2026 Apr 24 08:21:55 | 74.0404 | 0.00376 | 21.6895 | 30.5371 | 56.2449 | 14.44183 | – |
| 2026 Apr 28 17:56 | 2026 Apr 24 08:21:55 | 74.0404 | 0.00376 | 21.6895 | 30.5371 | 56.2449 | 14.44183 | – |
| 2026 Apr 27 17:58 | 2026 Apr 24 08:21:55 | 74.0404 | 0.00376 | 21.6895 | 30.5371 | 56.2449 | 14.44183 | – |
| 2026 Apr 26 17:58 | 2026 Apr 24 08:21:55 | 74.0404 | 0.00376 | 21.6895 | 30.5371 | 56.2449 | 14.44183 | – |
| 2026 Apr 25 17:58 | 2026 Apr 24 08:21:55 | 74.0404 | 0.00376 | 21.6895 | 30.5371 | 56.2449 | 14.44183 | – |
| 2026 Apr 24 17:59 | 2026 Apr 24 08:21:55 | 74.0404 | 0.00376 | 21.6895 | 30.5371 | 56.2449 | 14.44183 | – |
| 2026 Apr 23 17:57 | 2026 Apr 19 01:53:16 | 74.0412 | 0.00375 | 22.3429 | 41.7232 | 56.2449 | 14.44183 | – |
| 2026 Apr 22 17:57 | 2026 Apr 19 01:53:16 | 74.0412 | 0.00375 | 22.3429 | 41.7232 | 56.2449 | 14.44183 | – |
| 2026 Apr 21 17:57 | 2026 Apr 19 01:53:16 | 74.0412 | 0.00375 | 22.3429 | 41.7232 | 56.2449 | 14.44183 | – |
| 2026 Apr 20 17:57 | 2026 Apr 19 01:53:16 | 74.0412 | 0.00375 | 22.3429 | 41.7232 | 56.2449 | 14.44183 | – |
| 2026 Apr 19 17:58 | 2026 Apr 19 01:53:16 | 74.0412 | 0.00375 | 22.3429 | 41.7232 | 56.2449 | 14.44183 | – |
| 2026 Apr 18 17:56 | 2026 Apr 13 02:54:36 | 74.0419 | 0.00372 | 23.0815 | 54.3863 | 56.2449 | 14.44183 | – |
| 2026 Apr 16 17:57 | 2026 Apr 13 02:54:36 | 74.0419 | 0.00372 | 23.0815 | 54.3863 | 56.2449 | 14.44183 | – |
| 2026 Apr 14 17:57 | 2026 Apr 13 02:54:36 | 74.0419 | 0.00372 | 23.0815 | 54.3863 | 56.2449 | 14.44183 | – |
| 2026 Apr 13 17:57 | 2026 Apr 13 02:54:36 | 74.0419 | 0.00372 | 23.0815 | 54.3863 | 56.2449 | 14.44183 | – |
| 2026 Apr 12 17:57 | 2026 Apr 08 15:55:04 | 74.0428 | 0.00371 | 23.6341 | 63.9288 | 56.2449 | 14.44183 | – |
| 2026 Apr 11 17:57 | 2026 Apr 08 15:55:04 | 74.0428 | 0.00371 | 23.6341 | 63.9288 | 56.2449 | 14.44183 | – |
| 2026 Apr 10 17:58 | 2026 Apr 08 15:55:04 | 74.0428 | 0.00371 | 23.6341 | 63.9288 | 56.2449 | 14.44183 | – |
| 2026 Apr 09 18:01 | 2026 Apr 08 15:55:04 | 74.0428 | 0.00371 | 23.6341 | 63.9288 | 56.2449 | 14.44183 | – |
| 2026 Apr 08 17:57 | 2026 Apr 08 15:55:04 | 74.0428 | 0.00371 | 23.6341 | 63.9288 | 56.2449 | 14.44183 | – |
| 2026 Apr 07 17:57 | 2026 Apr 01 04:56:29 | 74.0431 | 0.00368 | 0.5586 | 79.9868 | 56.2449 | 14.44183 | – |
| 2026 Apr 06 17:57 | 2026 Apr 01 04:56:29 | 74.0431 | 0.00368 | 0.5586 | 79.9868 | 56.2449 | 14.44183 | – |